Time;durP1;ratioP1;P1;durP2;ratioP2;P2;SDS_P1;SDS_P2;PMS_P1;PMS_P2;Temp;Humidity;BMP_temperature;BMP_pressure;BME280_temperature;BME280_humidity;BME280_pressure;Samples;Min_cycle;Max_cycle;Signal;HPM_P1;HPM_P2
2024/03/30 00:00:47;;;;;;;;;;;;;;;8.27;100.00;94730.63;5064434;28;19932;-73
2024/03/30 00:03:13;;;;;;;;;;;;;;;8.23;100.00;94729.53;5063852;28;19927;-70
2024/03/30 00:05:39;;;;;;;;;;;;;;;8.21;100.00;94722.94;5045845;28;19932;-70
2024/03/30 00:08:05;;;;;;;;;;;;;;;8.20;100.00;94721.38;5063913;28;19962;-70
2024/03/30 00:10:31;;;;;;;;;;;;;;;8.22;100.00;94711.47;5064328;28;20130;-70
2024/03/30 00:12:58;;;;;;;;;;;;;;;8.21;100.00;94710.69;5063481;28;20214;-69
2024/03/30 00:15:27;;;;;;;;;;;;;;;8.18;100.00;94713.78;5064151;28;19951;-70
2024/03/30 00:17:54;;;;;;;;;;;;;;;8.16;100.00;94712.47;5063936;28;19948;-74
2024/03/30 00:20:22;;;;;;;;;;;;;;;8.19;100.00;94711.97;5063653;28;20219;-74
2024/03/30 00:22:51;;;;;;;;;;;;;;;8.18;100.00;94716.41;5063640;28;20154;-73
2024/03/30 00:25:18;;;;;;;;;;;;;;;8.19;100.00;94706.75;5063916;28;20223;-73
2024/03/30 00:27:44;;;;;;;;;;;;;;;8.19;100.00;94711.97;5050152;28;19934;-74
2024/03/30 00:30:10;;;;;;;;;;;;;;;8.22;100.00;94706.25;5066703;28;19943;-73
2024/03/30 00:32:36;;;;;;;;;;;;;;;8.22;100.00;94698.44;5067014;28;20129;-74
2024/03/30 00:35:02;;;;;;;;;;;;;;;8.22;100.00;94706.25;5067439;28;20016;-74
2024/03/30 00:37:28;;;;;;;;;;;;;;;8.20;100.00;94701.28;5067709;28;19935;-73
2024/03/30 00:39:54;;;;;;;;;;;;;;;8.20;100.00;94703.88;5067191;28;19963;-74
2024/03/30 00:42:20;;;;;;;;;;;;;;;8.21;100.00;94709.91;5067684;28;20083;-73
2024/03/30 00:44:46;;;;;;;;;;;;;;;8.19;100.00;94702.31;5067249;28;19932;-74
2024/03/30 00:47:12;;;;;;;;;;;;;;;8.19;100.00;94704.94;5049100;28;19941;-74
2024/03/30 00:49:37;;;;;;;;;;;;;;;8.18;100.00;94703.34;5066962;28;20026;-73
2024/03/30 00:52:04;;;;;;;;;;;;;;;8.17;100.00;94706.19;5067173;28;19944;-74
2024/03/30 00:54:29;;;;;;;;;;;;;;;8.14;100.00;94704.88;5048897;28;19940;-74
2024/03/30 00:56:55;;;;;;;;;;;;;;;8.10;100.00;94707.16;5067099;28;19935;-73
2024/03/30 00:59:21;;;;;;;;;;;;;;;8.08;100.00;94704.03;5066581;28;19936;-72
2024/03/30 01:01:48;;;;;;;;;;;;;;;8.06;100.00;94702.69;5067281;28;19931;-73
2024/03/30 01:04:14;;;;;;;;;;;;;;;8.04;100.00;94702.16;5066751;28;20259;-73
2024/03/30 01:06:40;;;;;;;;;;;;;;;8.00;100.00;94691.44;5067134;28;19943;-74
2024/03/30 01:09:07;;;;;;;;;;;;;;;8.00;100.00;94696.66;5066497;28;19953;-73
2024/03/30 01:11:33;;;;;;;;;;;;;;;7.98;100.00;94695.28;5066305;28;19933;-73
2024/03/30 01:14:00;;;;;;;;;;;;;;;7.97;100.00;94701.56;5066783;28;19938;-70
2024/03/30 01:16:26;;;;;;;;;;;;;;;7.95;100.00;94695.78;5048764;28;20241;-74
2024/03/30 01:18:52;;;;;;;;;;;;;;;7.92;100.00;94687.41;5066107;28;19936;-74
2024/03/30 01:21:17;;;;;;;;;;;;;;;7.93;100.00;94691.59;5066624;28;19939;-74
2024/03/30 01:23:44;;;;;;;;;;;;;;;7.91;100.00;94688.44;5066114;28;20165;-74
2024/03/30 01:26:11;;;;;;;;;;;;;;;7.90;100.00;94684.25;5066006;28;19943;-73
2024/03/30 01:28:37;;;;;;;;;;;;;;;7.90;100.00;94683.47;5066798;28;20080;-73
2024/03/30 01:31:03;;;;;;;;;;;;;;;7.88;100.00;94678.50;5066691;28;19968;-75
2024/03/30 01:33:29;;;;;;;;;;;;;;;7.88;100.00;94682.94;5066440;28;19936;-74
2024/03/30 01:35:55;;;;;;;;;;;;;;;7.88;100.00;94685.53;5031483;28;19988;-73
2024/03/30 01:38:21;;;;;;;;;;;;;;;7.87;100.00;94697.81;5064893;28;20149;-73
2024/03/30 01:40:47;;;;;;;;;;;;;;;7.86;100.00;94687.59;5066244;28;19989;-73
2024/03/30 01:43:12;;;;;;;;;;;;;;;7.86;100.00;94682.38;5065740;28;20028;-73
2024/03/30 01:45:43;;;;;;;;;;;;;;;7.86;100.00;94685.00;5047750;28;19943;-73
2024/03/30 01:48:10;;;;;;;;;;;;;;;7.85;100.00;94684.22;5065906;28;20185;-74
2024/03/30 01:50:38;;;;;;;;;;;;;;;7.86;100.00;94682.38;5065578;28;20234;-70
2024/03/30 01:53:05;;;;;;;;;;;;;;;7.85;100.00;94679.00;5066080;28;19935;-71
2024/03/30 01:55:31;;;;;;;;;;;;;;;7.86;100.00;94679.78;5064991;28;20005;-70
2024/03/30 01:57:58;;;;;;;;;;;;;;;7.85;100.00;94686.00;5065420;28;19983;-70
2024/03/30 02:00:24;;;;;;;;;;;;;;;7.83;100.00;94682.84;5048239;28;19942;-71
2024/03/30 02:02:51;;;;;;;;;;;;;;;7.82;100.00;94673.47;5065595;28;19963;-70
2024/03/30 02:05:18;;;;;;;;;;;;;;;7.82;100.00;94673.47;5065530;28;20109;-70
2024/03/30 02:07:46;;;;;;;;;;;;;;;7.80;100.00;94665.88;5065123;28;20212;-70
2024/03/30 02:10:12;;;;;;;;;;;;;;;7.82;100.00;94670.84;5047555;28;19946;-76
2024/03/30 02:12:41;;;;;;;;;;;;;;;7.82;100.00;94666.41;5047459;28;20127;-74
2024/03/30 02:15:08;;;;;;;;;;;;;;;7.82;100.00;94665.63;5065519;28;19955;-74
2024/03/30 02:17:34;;;;;;;;;;;;;;;7.82;100.00;94668.25;5031250;28;19940;-73
2024/03/30 02:20:00;;;;;;;;;;;;;;;7.83;100.00;94673.22;5064967;28;19942;-73
2024/03/30 02:22:27;;;;;;;;;;;;;;;7.83;100.00;94673.22;5047951;28;20005;-74
2024/03/30 02:24:53;;;;;;;;;;;;;;;7.83;100.00;94668.00;5047788;28;19946;-74
2024/03/30 02:27:19;;;;;;;;;;;;;;;7.84;100.00;94669.56;5047716;28;19937;-69
2024/03/30 02:29:47;;;;;;;;;;;;;;;7.85;100.00;94667.75;5065584;28;19935;-74
2024/03/30 02:32:13;;;;;;;;;;;;;;;7.85;100.00;94670.34;5064329;28;19946;-74
2024/03/30 02:34:39;;;;;;;;;;;;;;;7.84;100.00;94666.19;5065143;28;19931;-73
2024/03/30 02:37:05;;;;;;;;;;;;;;;7.83;100.00;94662.78;5064908;28;19936;-74
2024/03/30 02:39:32;;;;;;;;;;;;;;;7.82;100.00;94661.19;5064623;28;19928;-74
2024/03/30 02:41:58;;;;;;;;;;;;;;;7.81;100.00;94666.66;5064575;28;20133;-73
2024/03/30 02:44:24;;;;;;;;;;;;;;;7.80;100.00;94665.09;5065055;28;19928;-73
2024/03/30 02:46:49;;;;;;;;;;;;;;;7.78;100.00;94659.31;5064530;28;19927;-73
2024/03/30 02:49:15;;;;;;;;;;;;;;;7.76;100.00;94656.16;5064372;28;20011;-70
2024/03/30 02:51:41;;;;;;;;;;;;;;;7.75;100.00;94668.44;5030338;28;19940;-71
2024/03/30 02:54:07;;;;;;;;;;;;;;;7.75;100.00;94662.41;5065163;28;20000;-70
2024/03/30 02:56:33;;;;;;;;;;;;;;;7.73;100.00;94663.47;5064239;28;20013;-70
2024/03/30 02:58:59;;;;;;;;;;;;;;;7.74;100.00;94666.84;5064822;28;19936;-70
2024/03/30 03:01:25;;;;;;;;;;;;;;;7.75;100.00;94665.00;5064425;28;19935;-70
2024/03/30 03:03:51;;;;;;;;;;;;;;;7.76;100.00;94675.22;5064740;28;19935;-73
2024/03/30 03:06:17;;;;;;;;;;;;;;;7.77;100.00;94658.53;5064976;28;19939;-73
2024/03/30 03:08:43;;;;;;;;;;;;;;;7.77;100.00;94653.31;5064601;28;19968;-73
2024/03/30 03:11:09;;;;;;;;;;;;;;;7.79;100.00;94672.13;5064153;28;19984;-74
2024/03/30 03:13:35;;;;;;;;;;;;;;;7.79;100.00;94666.09;5064853;28;19937;-73
2024/03/30 03:16:04;;;;;;;;;;;;;;;7.80;100.00;94658.03;5064217;28;19986;-73
2024/03/30 03:18:30;;;;;;;;;;;;;;;7.80;100.00;94642.38;5064540;28;19935;-73
2024/03/30 03:20:56;;;;;;;;;;;;;;;7.81;100.00;94638.75;5063958;28;19992;-73
2024/03/30 03:23:24;;;;;;;;;;;;;;;7.82;100.00;94629.09;5063865;28;19963;-73
2024/03/30 03:25:49;;;;;;;;;;;;;;;7.81;100.00;94636.16;5063896;28;19944;-76
2024/03/30 03:28:15;;;;;;;;;;;;;;;7.81;100.00;94632.72;5063873;28;19947;-76
2024/03/30 03:30:41;;;;;;;;;;;;;;;7.80;100.00;94631.94;5046178;28;19934;-76
2024/03/30 03:33:07;;;;;;;;;;;;;;;7.80;100.00;94636.38;5046725;28;20217;-76
2024/03/30 03:35:33;;;;;;;;;;;;;;;7.80;100.00;94628.56;5046095;28;19953;-75
2024/03/30 03:37:59;;;;;;;;;;;;;;;7.79;100.00;94626.97;5046612;28;19961;-75
2024/03/30 03:40:24;;;;;;;;;;;;;;;7.78;100.00;94626.19;5063717;28;19944;-74
2024/03/30 03:42:51;;;;;;;;;;;;;;;7.81;100.00;94627.50;5063760;28;19935;-76
2024/03/30 03:45:17;;;;;;;;;;;;;;;7.85;100.00;94612.94;5064249;28;20018;-70
2024/03/30 03:47:42;;;;;;;;;;;;;;;7.86;100.00;94622.38;5046087;28;19935;-70
2024/03/30 03:50:08;;;;;;;;;;;;;;;7.86;100.00;94638.03;5030095;28;19942;-70
2024/03/30 03:52:34;;;;;;;;;;;;;;;7.83;100.00;94630.66;5063670;28;19939;-70
2024/03/30 03:55:00;;;;;;;;;;;;;;;7.84;100.00;94642.69;5046052;28;19951;-70
2024/03/30 03:57:26;;;;;;;;;;;;;;;7.81;100.00;94632.72;5046218;28;19942;-71
2024/03/30 03:59:52;;;;;;;;;;;;;;;7.80;100.00;94634.56;5045901;28;19944;-70
2024/03/30 04:02:17;;;;;;;;;;;;;;;7.78;100.00;94628.03;5067780;28;19946;-73
2024/03/30 04:04:43;;;;;;;;;;;;;;;7.75;100.00;94634.53;5068061;28;19939;-73
2024/03/30 04:07:09;;;;;;;;;;;;;;;7.70;100.00;94634.44;5067516;28;19938;-72
2024/03/30 04:09:35;;;;;;;;;;;;;;;7.68;100.00;94639.91;5067552;28;19953;-73
2024/03/30 04:12:01;;;;;;;;;;;;;;;7.69;100.00;94618.00;5068145;28;19998;-73
2024/03/30 04:14:26;;;;;;;;;;;;;;;7.69;100.00;94631.06;5067397;28;20038;-74
2024/03/30 04:16:52;;;;;;;;;;;;;;;7.67;100.00;94640.94;5067242;28;20300;-74
2024/03/30 04:19:18;;;;;;;;;;;;;;;7.63;100.00;94642.47;5067324;28;19987;-73
2024/03/30 04:21:44;;;;;;;;;;;;;;;7.59;100.00;94651.03;5067235;28;19976;-70
2024/03/30 04:24:11;;;;;;;;;;;;;;;7.54;100.00;94646.53;5049409;28;20279;-70
2024/03/30 04:26:38;;;;;;;;;;;;;;;7.53;100.00;94648.34;5032798;28;20133;-70
2024/03/30 04:29:04;;;;;;;;;;;;;;;7.50;100.00;94658.47;5067141;28;19935;-70
2024/03/30 04:31:30;;;;;;;;;;;;;;;7.44;100.00;94646.41;5033461;28;19937;-70
2024/03/30 04:33:56;;;;;;;;;;;;;;;7.40;100.00;94651.31;5067545;28;19940;-70
2024/03/30 04:36:22;;;;;;;;;;;;;;;7.40;100.00;94655.75;5049777;28;19958;-73
2024/03/30 04:38:48;;;;;;;;;;;;;;;7.39;100.00;94651.53;5049759;28;19952;-73
2024/03/30 04:41:14;;;;;;;;;;;;;;;7.36;100.00;94644.22;5066888;28;19965;-73
2024/03/30 04:43:40;;;;;;;;;;;;;;;7.35;100.00;94643.44;5066854;28;20214;-74
2024/03/30 04:46:08;;;;;;;;;;;;;;;7.37;100.00;94638.78;5067240;28;19940;-73
2024/03/30 04:48:34;;;;;;;;;;;;;;;7.40;100.00;94648.72;5067245;28;19938;-73
2024/03/30 04:51:01;;;;;;;;;;;;;;;7.41;100.00;94649.50;5049221;28;19952;-73
2024/03/30 04:53:32;;;;;;;;;;;;;;;7.39;100.00;94649.75;5066652;28;19930;-74
2024/03/30 04:55:59;;;;;;;;;;;;;;;7.38;100.00;94653.38;5067307;28;19951;-76
2024/03/30 04:58:26;;;;;;;;;;;;;;;7.39;100.00;94657.56;5065363;28;19943;-69
2024/03/30 05:00:53;;;;;;;;;;;;;;;7.37;100.00;94632.75;5066500;28;20216;-69
2024/03/30 05:03:19;;;;;;;;;;;;;;;7.37;100.00;94636.16;5032077;28;19942;-69
2024/03/30 05:05:45;;;;;;;;;;;;;;;7.37;100.00;94628.34;5066913;28;19958;-69
2024/03/30 05:08:12;;;;;;;;;;;;;;;7.38;100.00;94627.28;5066397;28;19948;-69
2024/03/30 05:10:38;;;;;;;;;;;;;;;7.39;100.00;94652.34;5067141;28;19935;-69
2024/03/30 05:13:05;;;;;;;;;;;;;;;7.39;100.00;94641.13;5065503;28;19941;-74
2024/03/30 05:15:40;;;;;;;;;;;;;;;7.38;100.00;94634.34;5067002;28;19939;-76
2024/03/30 05:18:08;;;;;;;;;;;;;;;7.42;100.00;94643.25;5065736;28;19950;-76
2024/03/30 05:20:49;;;;;;;;;;;;;;;7.43;100.00;94648.25;5048497;28;19941;-76
2024/03/30 05:23:18;;;;;;;;;;;;;;;7.45;100.00;94627.91;5066267;28;19962;-76
2024/03/30 05:25:45;;;;;;;;;;;;;;;7.50;100.00;94629.78;5066562;28;19952;-76
2024/03/30 05:28:11;;;;;;;;;;;;;;;7.55;100.00;94639.50;5031792;28;19946;-76
2024/03/30 05:30:38;;;;;;;;;;;;;;;7.59;100.00;94623.13;5066273;28;19937;-70
2024/03/30 05:33:04;;;;;;;;;;;;;;;7.66;100.00;94578.56;5066743;28;19935;-73
2024/03/30 05:35:30;;;;;;;;;;;;;;;7.75;100.00;94597.19;5066379;28;20248;-74
2024/03/30 05:37:57;;;;;;;;;;;;;;;7.84;100.00;94609.56;5066614;28;19936;-73
2024/03/30 05:40:23;;;;;;;;;;;;;;;7.92;100.00;94634.44;5066578;28;20203;-73
2024/03/30 05:42:48;;;;;;;;;;;;;;;8.05;100.00;94649.69;5066256;28;19942;-74
2024/03/30 05:45:14;;;;;;;;;;;;;;;8.19;100.00;94608.34;5065714;28;19944;-73
2024/03/30 05:47:40;;;;;;;;;;;;;;;8.32;100.00;94591.47;5065935;28;19939;-73
2024/03/30 05:50:06;;;;;;;;;;;;;;;8.45;100.00;94627.63;5066389;28;19943;-73
2024/03/30 05:52:32;;;;;;;;;;;;;;;8.60;100.00;94634.81;5065900;28;19942;-74
2024/03/30 05:54:58;;;;;;;;;;;;;;;8.73;100.00;94610.06;5048233;28;19933;-74
2024/03/30 05:57:23;;;;;;;;;;;;;;;8.85;100.00;94587.16;5065942;28;20027;-74
2024/03/30 05:59:49;;;;;;;;;;;;;;;9.01;100.00;94574.16;5065281;28;19943;-74
2024/03/30 06:02:15;;;;;;;;;;;;;;;9.12;100.00;94615.03;5065887;28;19942;-74
2024/03/30 06:04:41;;;;;;;;;;;;;;;9.20;100.00;94570.09;5047772;28;19939;-74
2024/03/30 06:07:08;;;;;;;;;;;;;;;9.28;100.00;94576.66;5047922;28;19960;-74
2024/03/30 06:09:37;;;;;;;;;;;;;;;9.34;96.67;94536.41;5065160;28;19951;-73
2024/03/30 06:12:03;;;;;;;;;;;;;;;9.42;99.95;94561.28;5030789;28;19944;-74
2024/03/30 06:14:30;;;;;;;;;;;;;;;9.51;96.79;94530.94;5065112;28;19935;-74
2024/03/30 06:16:56;;;;;;;;;;;;;;;9.59;97.19;94540.91;5064958;28;19957;-74
2024/03/30 06:19:22;;;;;;;;;;;;;;;9.66;98.44;94540.66;5065582;28;19936;-74
2024/03/30 06:21:48;;;;;;;;;;;;;;;9.69;100.00;94555.88;5065205;28;19931;-74
2024/03/30 06:24:14;;;;;;;;;;;;;;;9.69;100.00;94555.88;5064509;28;20164;-74
2024/03/30 06:26:40;;;;;;;;;;;;;;;9.71;100.00;94561.63;5047107;28;20290;-70
2024/03/30 06:29:06;;;;;;;;;;;;;;;9.72;100.00;94550.09;5047777;28;19947;-70
2024/03/30 06:31:32;;;;;;;;;;;;;;;9.71;98.08;94531.00;5047865;28;19939;-70
2024/03/30 06:33:58;;;;;;;;;;;;;;;9.76;94.82;94504.03;5064791;28;19942;-70
2024/03/30 06:36:24;;;;;;;;;;;;;;;9.81;90.40;94479.72;5065429;28;19952;-70
2024/03/30 06:38:50;;;;;;;;;;;;;;;9.84;91.57;94490.44;5065164;28;19963;-70
2024/03/30 06:44:00;;;;;;;;;;;;;;;9.82;100.00;94547.50;5065079;28;20124;-76
2024/03/30 06:46:26;;;;;;;;;;;;;;;9.80;100.00;94549.59;5047719;28;19934;-73
2024/03/30 06:48:52;;;;;;;;;;;;;;;9.77;100.00;94546.72;5046688;28;20176;-74
2024/03/30 06:51:18;;;;;;;;;;;;;;;9.75;100.00;94560.06;5047539;28;19944;-74
2024/03/30 06:53:44;;;;;;;;;;;;;;;9.73;100.00;94578.66;5064644;28;20160;-74
2024/03/30 06:56:09;;;;;;;;;;;;;;;9.72;100.00;94586.75;5064283;28;19974;-73
2024/03/30 06:58:35;;;;;;;;;;;;;;;9.70;100.00;94597.50;5046443;28;19941;-74
2024/03/30 07:01:02;;;;;;;;;;;;;;;9.66;100.00;94595.63;5064687;28;19940;-74
2024/03/30 07:03:30;;;;;;;;;;;;;;;9.63;100.00;94599.53;5063497;28;20832;-69
2024/03/30 07:05:55;;;;;;;;;;;;;;;9.64;100.00;94603.75;5046491;28;20011;-73
2024/03/30 07:08:21;;;;;;;;;;;;;;;9.63;100.00;94606.63;5064096;28;19970;-73
2024/03/30 07:10:47;;;;;;;;;;;;;;;9.64;100.00;94601.13;5064149;28;20011;-74
2024/03/30 07:13:13;;;;;;;;;;;;;;;9.63;100.00;94596.94;5064632;28;19948;-73
2024/03/30 07:15:39;;;;;;;;;;;;;;;9.63;100.00;94575.22;5064541;28;19930;-73
2024/03/30 07:18:06;;;;;;;;;;;;;;;9.63;100.00;94586.47;5064051;28;19935;-74
2024/03/30 07:20:32;;;;;;;;;;;;;;;9.63;100.00;94593.53;5064048;28;19934;-74
2024/03/30 07:22:58;;;;;;;;;;;;;;;9.61;100.00;94600.84;5063803;28;19964;-73
2024/03/30 07:25:24;;;;;;;;;;;;;;;9.60;100.00;94607.94;5064794;28;19944;-70
2024/03/30 07:27:50;;;;;;;;;;;;;;;9.59;100.00;94584.63;5064094;28;19934;-70
2024/03/30 07:30:16;;;;;;;;;;;;;;;9.57;100.00;94587.47;5063950;28;19957;-70
2024/03/30 07:32:42;;;;;;;;;;;;;;;9.58;100.00;94596.16;5064093;28;19936;-70
2024/03/30 07:35:08;;;;;;;;;;;;;;;9.57;100.00;94581.47;5046051;28;19947;-70
2024/03/30 07:37:34;;;;;;;;;;;;;;;9.58;100.00;94581.22;5046012;28;19963;-71
2024/03/30 07:39:59;;;;;;;;;;;;;;;9.59;100.00;94567.09;5063803;28;19990;-69
2024/03/30 07:42:25;;;;;;;;;;;;;;;9.63;100.00;94549.81;5046193;28;19938;-74
2024/03/30 07:44:51;;;;;;;;;;;;;;;9.67;100.00;94568.41;5046491;28;19975;-74
2024/03/30 07:47:17;;;;;;;;;;;;;;;9.66;100.00;94562.41;5063748;28;20274;-74
2024/03/30 07:49:43;;;;;;;;;;;;;;;9.69;100.00;94592.50;5064483;28;20140;-74
2024/03/30 07:52:08;;;;;;;;;;;;;;;9.70;100.00;94553.00;5063722;28;20219;-74
2024/03/30 07:54:34;;;;;;;;;;;;;;;9.72;100.00;94548.28;5063663;28;19937;-74
2024/03/30 07:57:00;;;;;;;;;;;;;;;9.74;100.00;94577.63;5063556;28;19950;-74
2024/03/30 07:59:27;;;;;;;;;;;;;;;9.78;100.00;94564.78;5063659;28;19937;-69
2024/03/30 08:01:53;;;;;;;;;;;;;;;9.82;100.00;94581.53;5064153;28;20173;-73
2024/03/30 08:04:19;;;;;;;;;;;;;;;9.85;100.00;94556.66;5063580;28;19941;-73
2024/03/30 08:06:46;;;;;;;;;;;;;;;9.90;100.00;94573.19;5046068;28;19929;-73
2024/03/30 08:09:12;;;;;;;;;;;;;;;9.94;100.00;94583.94;5063388;28;19960;-73
2024/03/30 08:11:38;;;;;;;;;;;;;;;9.95;100.00;94586.28;5064322;28;19932;-73
2024/03/30 08:14:05;;;;;;;;;;;;;;;9.96;100.00;94572.16;5064024;28;20217;-73
2024/03/30 08:16:30;;;;;;;;;;;;;;;9.96;99.74;94540.72;5063362;28;19951;-76
2024/03/30 08:18:58;;;;;;;;;;;;;;;10.02;93.49;94498.84;5046462;28;19953;-70
2024/03/30 08:21:24;;;;;;;;;;;;;;;10.09;88.34;94476.56;5063350;28;19937;-73
2024/03/30 08:23:50;;;;;;;;;;;;;;;10.22;88.33;94477.09;5025672;28;19974;-74
2024/03/30 08:26:16;;;;;;;;;;;;;;;10.32;85.81;94471.88;5043419;28;19978;-73
2024/03/30 08:28:45;;;;;;;;;;;;;;;10.39;92.31;94516.13;5044229;28;19947;-73
2024/03/30 08:31:11;;;;;;;;;;;;;;;10.41;94.93;94522.69;5042903;28;19937;-74
2024/03/30 08:33:37;;;;;;;;;;;;;;;10.40;96.21;94534.22;5043899;28;19976;-74
2024/03/30 08:36:03;;;;;;;;;;;;;;;10.38;91.73;94511.97;5042873;28;19983;-74
2024/03/30 08:38:29;;;;;;;;;;;;;;;10.39;92.52;94521.38;5025749;28;19936;-76
2024/03/30 08:40:55;;;;;;;;;;;;;;;10.43;82.28;94457.69;5043261;28;19975;-76
2024/03/30 08:43:25;;;;;;;;;;;;;;;10.53;79.75;94443.78;5043251;28;19933;-76
2024/03/30 08:45:51;;;;;;;;;;;;;;;10.61;92.98;94518.47;5044008;28;19936;-76
2024/03/30 08:48:17;;;;;;;;;;;;;;;10.60;97.06;94543.09;5045549;28;19942;-76
2024/03/30 08:50:43;;;;;;;;;;;;;;;10.56;90.87;94504.34;5029943;28;19939;-76
2024/03/30 08:53:09;;;;;;;;;;;;;;;10.54;89.29;94493.31;5046396;28;19949;-73
2024/03/30 08:55:36;;;;;;;;;;;;;;;10.56;84.72;94464.22;5046702;28;19936;-74
2024/03/30 08:58:02;;;;;;;;;;;;;;;10.59;85.91;94483.88;5046590;28;19951;-73
2024/03/30 09:00:28;;;;;;;;;;;;;;;10.62;86.18;94484.13;5047118;28;19927;-73
2024/03/30 09:02:54;;;;;;;;;;;;;;;10.64;89.27;94494.34;5046542;28;19944;-73
2024/03/30 09:05:23;;;;;;;;;;;;;;;10.63;93.74;94516.38;5046548;28;19934;-73
2024/03/30 09:07:49;;;;;;;;;;;;;;;10.63;91.58;94506.69;5046655;28;19938;-73
2024/03/30 09:10:15;;;;;;;;;;;;;;;10.64;91.46;94505.59;5047244;28;19945;-73
2024/03/30 09:12:41;;;;;;;;;;;;;;;10.66;87.92;94485.16;5046414;28;19973;-76
2024/03/30 09:15:07;;;;;;;;;;;;;;;10.70;93.90;94522.13;5045251;28;19932;-74
2024/03/30 09:17:33;;;;;;;;;;;;;;;10.71;90.47;94503.50;5045126;28;19976;-74
2024/03/30 09:20:02;;;;;;;;;;;;;;;10.72;95.26;94526.03;5046241;28;19939;-74
2024/03/30 09:22:27;;;;;;;;;;;;;;;10.73;94.92;94521.56;5046724;28;19936;-74
2024/03/30 09:24:57;;;;;;;;;;;;;;;10.73;94.95;94530.25;5048725;28;19977;-74
2024/03/30 09:27:23;;;;;;;;;;;;;;;10.73;94.13;94524.19;5066095;28;19934;-74
2024/03/30 09:29:50;;;;;;;;;;;;;;;10.75;91.14;94490.63;5066098;28;19944;-74
2024/03/30 09:32:16;;;;;;;;;;;;;;;10.79;88.46;94477.78;5066537;28;20183;-71
2024/03/30 09:34:42;;;;;;;;;;;;;;;10.83;83.81;94444.75;5048342;28;19932;-74
2024/03/30 09:37:08;;;;;;;;;;;;;;;10.87;80.95;94445.78;5065841;28;19997;-74
2024/03/30 09:39:40;;;;;;;;;;;;;;;10.94;80.69;94447.06;5066666;28;19942;-74
2024/03/30 09:42:07;;;;;;;;;;;;;;;11.04;78.44;94445.44;5065837;28;19936;-74
2024/03/30 09:44:36;;;;;;;;;;;;;;;11.12;78.96;94447.50;5065757;28;20100;-74
2024/03/30 09:47:02;;;;;;;;;;;;;;;11.18;81.19;94462.94;5065652;28;19932;-74
2024/03/30 09:49:32;;;;;;;;;;;;;;;11.24;77.91;94434.84;5066488;28;19937;-69
2024/03/30 09:52:08;;;;;;;;;;;;;;;11.30;85.39;94485.47;5047852;28;20232;-75
2024/03/30 09:54:34;;;;;;;;;;;;;;;11.30;89.54;94507.25;5048492;28;20190;-76
2024/03/30 09:57:00;;;;;;;;;;;;;;;11.29;91.02;94507.50;5031065;28;19956;-76
2024/03/30 09:59:26;;;;;;;;;;;;;;;11.29;89.65;94510.91;5064824;28;19962;-76
2024/03/30 10:01:52;;;;;;;;;;;;;;;11.33;87.65;94493.56;5065927;28;19931;-76
2024/03/30 10:04:18;;;;;;;;;;;;;;;11.37;84.76;94473.59;5048351;28;20159;-76
2024/03/30 10:06:50;;;;;;;;;;;;;;;11.42;87.39;94499.03;5047653;28;19972;-73
2024/03/30 10:09:18;;;;;;;;;;;;;;;11.48;85.65;94476.16;5047370;28;19954;-70
2024/03/30 10:11:45;;;;;;;;;;;;;;;11.52;89.89;94496.34;5066042;28;19941;-74
2024/03/30 10:14:29;;;;;;;;;;;;;;;11.55;98.81;94548.31;5064126;28;19947;-74
2024/03/30 10:16:55;;;;;;;;;;;;;;;11.57;97.50;94534.94;5065055;28;19949;-74
2024/03/30 10:19:22;;;;;;;;;;;;;;;11.60;96.55;94526.50;5048156;28;19952;-74
2024/03/30 10:21:49;;;;;;;;;;;;;;;11.64;94.54;94524.91;5063831;28;19932;-74
2024/03/30 10:24:16;;;;;;;;;;;;;;;11.68;91.28;94499.69;5064941;28;19987;-74
2024/03/30 10:26:42;;;;;;;;;;;;;;;11.74;90.70;94506.47;5065441;28;20234;-73
2024/03/30 10:29:08;;;;;;;;;;;;;;;11.77;82.63;94460.50;5031338;28;19947;-70
2024/03/30 10:31:37;;;;;;;;;;;;;;;11.84;76.47;94420.78;5064871;28;20242;-70
2024/03/30 10:34:02;;;;;;;;;;;;;;;11.91;81.19;94440.47;5064368;28;19945;-70
2024/03/30 10:36:28;;;;;;;;;;;;;;;11.98;89.80;94498.72;5047601;28;19945;-70
2024/03/30 10:38:57;;;;;;;;;;;;;;;12.02;90.32;94500.81;5046937;28;19933;-71
2024/03/30 10:41:27;;;;;;;;;;;;;;;12.05;91.04;94505.50;5064647;28;20151;-70
2024/03/30 10:43:53;;;;;;;;;;;;;;;12.08;90.10;94497.06;5063348;28;19943;-73
2024/03/30 10:46:19;;;;;;;;;;;;;;;12.13;90.52;94503.06;5047340;28;19959;-70
2024/03/30 10:48:45;;;;;;;;;;;;;;;12.17;92.57;94511.97;5064560;28;20221;-74
2024/03/30 10:51:11;;;;;;;;;;;;;;;12.23;93.15;94515.34;5065012;28;19936;-74
2024/03/30 10:53:37;;;;;;;;;;;;;;;12.28;93.90;94519.75;5065149;28;20013;-73
2024/03/30 10:56:03;;;;;;;;;;;;;;;12.29;95.37;94527.38;5064021;28;19939;-73
2024/03/30 10:58:30;;;;;;;;;;;;;;;12.33;96.29;94532.88;5064281;28;20010;-73
2024/03/30 11:00:57;;;;;;;;;;;;;;;12.34;96.29;94540.47;5064896;28;20235;-74
2024/03/30 11:03:24;;;;;;;;;;;;;;;12.37;96.74;94534.69;5064279;28;19946;-76
2024/03/30 11:05:52;;;;;;;;;;;;;;;12.39;98.19;94542.28;5046709;28;19939;-74
2024/03/30 11:08:18;;;;;;;;;;;;;;;12.42;95.20;94527.81;5046987;28;19956;-73
2024/03/30 11:10:44;;;;;;;;;;;;;;;12.43;99.65;94545.94;5030003;28;19950;-73
2024/03/30 11:13:10;;;;;;;;;;;;;;;12.41;96.91;94540.19;5046423;28;20008;-73
2024/03/30 11:15:41;;;;;;;;;;;;;;;12.35;93.10;94507.09;5046171;28;19997;-73
2024/03/30 11:18:12;;;;;;;;;;;;;;;12.31;93.38;94511.34;5046273;28;19953;-73
2024/03/30 11:20:44;;;;;;;;;;;;;;;12.27;94.03;94519.00;5064568;28;20229;-76
2024/03/30 11:23:22;;;;;;;;;;;;;;;12.23;92.23;94504.84;5064155;28;20165;-70
2024/03/30 11:25:49;;;;;;;;;;;;;;;12.24;91.26;94498.53;5046606;28;19955;-73
2024/03/30 11:28:17;;;;;;;;;;;;;;;12.27;90.99;94505.06;5063879;28;19943;-73
2024/03/30 11:30:43;;;;;;;;;;;;;;;12.29;91.41;94502.94;5063437;28;19950;-73
2024/03/30 11:33:12;;;;;;;;;;;;;;;12.31;92.30;94509.50;5046004;28;20011;-74
2024/03/30 11:35:52;;;;;;;;;;;;;;;12.33;90.44;94490.81;5029874;28;19938;-73
2024/03/30 11:38:19;;;;;;;;;;;;;;;12.37;91.79;94505.00;5064298;28;19962;-76
2024/03/30 11:40:56;;;;;;;;;;;;;;;12.39;92.53;94508.91;5064362;28;20231;-73
2024/03/30 11:43:26;;;;;;;;;;;;;;;12.45;90.18;94493.88;5064394;28;19942;-76
2024/03/30 11:45:53;;;;;;;;;;;;;;;12.51;89.24;94484.84;5064030;28;19935;-76
2024/03/30 11:48:19;;;;;;;;;;;;;;;12.57;88.68;94475.84;5063730;28;20121;-76
2024/03/30 11:50:45;;;;;;;;;;;;;;;12.66;87.96;94473.44;5046536;28;19936;-76
2024/03/30 11:53:17;;;;;;;;;;;;;;;12.73;85.67;94458.09;5064221;28;20006;-76
2024/03/30 11:55:44;;;;;;;;;;;;;;;12.83;84.86;94451.13;5063725;28;20124;-76
2024/03/30 11:58:20;;;;;;;;;;;;;;;12.92;82.44;94426.56;5046452;28;19961;-74
2024/03/30 12:00:58;;;;;;;;;;;;;;;13.03;85.38;94450.13;5046023;28;19934;-70
2024/03/30 12:03:25;;;;;;;;;;;;;;;13.10;89.10;94461.88;5030191;28;19935;-70
2024/03/30 12:05:52;;;;;;;;;;;;;;;13.15;86.97;94448.66;5030036;28;19945;-71
2024/03/30 12:08:23;;;;;;;;;;;;;;;13.18;82.87;94427.00;5030048;28;19952;-70
2024/03/30 12:10:55;;;;;;;;;;;;;;;13.24;81.29;94416.44;5064131;28;20217;-70
2024/03/30 12:13:25;;;;;;;;;;;;;;;13.28;78.87;94405.06;5063558;28;19958;-70
2024/03/30 12:15:51;;;;;;;;;;;;;;;13.30;77.38;94395.06;5046497;28;20156;-70
2024/03/30 12:18:17;;;;;;;;;;;;;;;13.31;77.91;94407.16;5063468;28;19969;-75
2024/03/30 12:20:44;;;;;;;;;;;;;;;13.33;84.83;94441.88;5063486;28;19943;-76
2024/03/30 12:23:14;;;;;;;;;;;;;;;13.35;75.29;94399.47;5032655;28;19974;-76
2024/03/30 12:25:41;;;;;;;;;;;;;;;13.38;75.57;94397.03;5066918;28;19944;-76
2024/03/30 12:28:08;;;;;;;;;;;;;;;13.42;74.29;94385.94;5067923;28;19945;-76
2024/03/30 12:30:40;;;;;;;;;;;;;;;13.45;72.77;94382.75;5033345;28;20107;-76
2024/03/30 12:33:06;;;;;;;;;;;;;;;13.47;73.90;94384.00;5067680;28;19949;-76
2024/03/30 12:35:32;;;;;;;;;;;;;;;13.51;76.70;94395.53;5066715;28;20210;-69
2024/03/30 12:37:59;;;;;;;;;;;;;;;13.55;78.71;94414.97;5067779;28;19961;-76
2024/03/30 12:40:29;;;;;;;;;;;;;;;13.63;79.46;94415.38;5067808;28;19935;-76
2024/03/30 12:42:56;;;;;;;;;;;;;;;13.69;79.51;94412.41;5049242;28;19942;-77
2024/03/30 12:45:22;;;;;;;;;;;;;;;13.73;76.29;94394.16;5066926;28;19944;-76
2024/03/30 12:47:48;;;;;;;;;;;;;;;13.78;77.30;94396.72;5066853;28;19932;-76